sensor_id;sensor_type;location;lat;lon;timestamp;pressure;altitude;pressure_sealevel;temperature;humidity
12666;BME280;58531;59.050;17.416;2024-03-08T00:00:31;102046.81;;;-4.56;100.00
12666;BME280;58531;59.050;17.416;2024-03-08T00:02:58;102035.47;;;-4.60;100.00
12666;BME280;58531;59.050;17.416;2024-03-08T00:05:26;102040.50;;;-4.64;100.00
12666;BME280;58531;59.050;17.416;2024-03-08T00:07:53;102041.88;;;-4.66;100.00
12666;BME280;58531;59.050;17.416;2024-03-08T00:10:20;102034.34;;;-4.68;100.00
12666;BME280;58531;59.050;17.416;2024-03-08T00:12:47;102038.00;;;-4.68;100.00
12666;BME280;58531;59.050;17.416;2024-03-08T00:15:16;102043.81;;;-4.71;100.00
12666;BME280;58531;59.050;17.416;2024-03-08T00:17:44;102033.97;;;-4.74;100.00
12666;BME280;58531;59.050;17.416;2024-03-08T00:20:11;102039.66;;;-4.72;100.00
12666;BME280;58531;59.050;17.416;2024-03-08T00:22:38;102037.66;;;-4.75;100.00
12666;BME280;58531;59.050;17.416;2024-03-08T00:25:07;102036.13;;;-4.76;100.00
12666;BME280;58531;59.050;17.416;2024-03-08T00:27:34;102036.91;;;-4.76;100.00
12666;BME280;58531;59.050;17.416;2024-03-08T00:30:02;102034.88;;;-4.79;100.00
12666;BME280;58531;59.050;17.416;2024-03-08T00:32:31;102031.22;;;-4.78;100.00
12666;BME280;58531;59.050;17.416;2024-03-08T00:34:58;102034.09;;;-4.79;100.00
12666;BME280;58531;59.050;17.416;2024-03-08T00:37:25;102034.88;;;-4.79;100.00
12666;BME280;58531;59.050;17.416;2024-03-08T00:39:52;102029.19;;;-4.81;100.00
12666;BME280;58531;59.050;17.416;2024-03-08T00:42:20;102038.69;;;-4.85;100.00
12666;BME280;58531;59.050;17.416;2024-03-08T00:44:47;102028.56;;;-4.86;100.00
12666;BME280;58531;59.050;17.416;2024-03-08T00:47:16;102030.38;;;-4.87;100.00
12666;BME280;58531;59.050;17.416;2024-03-08T00:49:44;102029.91;;;-4.89;100.00
12666;BME280;58531;59.050;17.416;2024-03-08T00:52:13;102030.22;;;-4.90;100.00
12666;BME280;58531;59.050;17.416;2024-03-08T00:54:43;102035.44;;;-4.90;100.00
12666;BME280;58531;59.050;17.416;2024-03-08T00:57:10;102030.81;;;-4.93;100.00
12666;BME280;58531;59.050;17.416;2024-03-08T00:59:38;102031.09;;;-4.95;100.00
12666;BME280;58531;59.050;17.416;2024-03-08T01:02:05;102026.00;;;-5.00;100.00
12666;BME280;58531;59.050;17.416;2024-03-08T01:04:34;102031.06;;;-5.03;100.00
12666;BME280;58531;59.050;17.416;2024-03-08T01:07:03;102025.66;;;-5.07;100.00
12666;BME280;58531;59.050;17.416;2024-03-08T01:09:29;102029.75;;;-5.14;100.00
12666;BME280;58531;59.050;17.416;2024-03-08T01:11:57;102032.44;;;-5.19;100.00
12666;BME280;58531;59.050;17.416;2024-03-08T01:14:24;102031.50;;;-5.23;100.00
12666;BME280;58531;59.050;17.416;2024-03-08T01:16:52;102030.28;;;-5.26;100.00
12666;BME280;58531;59.050;17.416;2024-03-08T01:19:20;102026.88;;;-5.26;100.00
12666;BME280;58531;59.050;17.416;2024-03-08T01:21:47;102029.31;;;-5.30;100.00
12666;BME280;58531;59.050;17.416;2024-03-08T01:24:15;102026.50;;;-5.33;100.00
12666;BME280;58531;59.050;17.416;2024-03-08T01:26:52;102033.50;;;-5.42;100.00
12666;BME280;58531;59.050;17.416;2024-03-08T01:29:19;102032.72;;;-5.43;100.00
12666;BME280;58531;59.050;17.416;2024-03-08T01:31:46;102037.19;;;-5.43;100.00
12666;BME280;58531;59.050;17.416;2024-03-08T01:34:13;102025.69;;;-5.42;100.00
12666;BME280;58531;59.050;17.416;2024-03-08T01:36:40;102031.97;;;-5.43;100.00
12666;BME280;58531;59.050;17.416;2024-03-08T01:39:07;102020.00;;;-5.44;100.00
12666;BME280;58531;59.050;17.416;2024-03-08T01:41:36;102014.81;;;-5.44;100.00
12666;BME280;58531;59.050;17.416;2024-03-08T01:44:03;102010.78;;;-5.50;100.00
12666;BME280;58531;59.050;17.416;2024-03-08T01:46:33;102022.25;;;-5.51;100.00
12666;BME280;58531;59.050;17.416;2024-03-08T01:49:02;102014.25;;;-5.55;100.00
12666;BME280;58531;59.050;17.416;2024-03-08T01:51:29;102005.69;;;-5.55;100.00
12666;BME280;58531;59.050;17.416;2024-03-08T01:53:58;102007.59;;;-5.61;100.00
12666;BME280;58531;59.050;17.416;2024-03-08T01:56:27;102013.69;;;-5.65;100.00
12666;BME280;58531;59.050;17.416;2024-03-08T01:58:55;102009.06;;;-5.68;100.00
12666;BME280;58531;59.050;17.416;2024-03-08T02:01:22;102003.69;;;-5.72;100.00
12666;BME280;58531;59.050;17.416;2024-03-08T02:03:49;102004.91;;;-5.78;100.00
12666;BME280;58531;59.050;17.416;2024-03-08T02:06:16;102001.03;;;-5.80;100.00
12666;BME280;58531;59.050;17.416;2024-03-08T02:08:43;102000.84;;;-5.83;100.00
12666;BME280;58531;59.050;17.416;2024-03-08T02:11:11;102000.06;;;-5.84;100.00
12666;BME280;58531;59.050;17.416;2024-03-08T02:13:38;102001.63;;;-5.83;100.00
12666;BME280;58531;59.050;17.416;2024-03-08T02:16:08;101998.53;;;-5.85;100.00
12666;BME280;58531;59.050;17.416;2024-03-08T02:18:36;101994.69;;;-5.87;100.00
12666;BME280;58531;59.050;17.416;2024-03-08T02:21:06;101983.53;;;-5.88;100.00
12666;BME280;58531;59.050;17.416;2024-03-08T02:23:34;101989.31;;;-5.91;100.00
12666;BME280;58531;59.050;17.416;2024-03-08T02:26:01;101990.88;;;-5.90;100.00
12666;BME280;58531;59.050;17.416;2024-03-08T02:28:30;101991.91;;;-5.91;100.00
12666;BME280;58531;59.050;17.416;2024-03-08T02:30:57;101988.53;;;-5.91;100.00
12666;BME280;58531;59.050;17.416;2024-03-08T02:33:25;101985.19;;;-5.92;100.00
12666;BME280;58531;59.050;17.416;2024-03-08T02:35:52;101990.38;;;-5.92;100.00
12666;BME280;58531;59.050;17.416;2024-03-08T02:38:21;101988.38;;;-5.95;100.00
12666;BME280;58531;59.050;17.416;2024-03-08T02:40:50;101983.44;;;-5.96;100.00
12666;BME280;58531;59.050;17.416;2024-03-08T02:43:19;101989.41;;;-5.96;100.00
12666;BME280;58531;59.050;17.416;2024-03-08T02:45:47;101984.69;;;-5.94;100.00
12666;BME280;58531;59.050;17.416;2024-03-08T02:48:15;101986.25;;;-5.93;100.00
12666;BME280;58531;59.050;17.416;2024-03-08T02:50:42;101977.97;;;-5.95;100.00
12666;BME280;58531;59.050;17.416;2024-03-08T02:53:10;101973.34;;;-5.98;100.00
12666;BME280;58531;59.050;17.416;2024-03-08T02:55:38;101973.91;;;-6.01;100.00
12666;BME280;58531;59.050;17.416;2024-03-08T02:58:06;101975.47;;;-6.00;100.00
12666;BME280;58531;59.050;17.416;2024-03-08T03:00:35;101977.28;;;-6.00;100.00
12666;BME280;58531;59.050;17.416;2024-03-08T03:03:04;101980.09;;;-5.97;100.00
12666;BME280;58531;59.050;17.416;2024-03-08T03:05:32;101974.41;;;-5.99;100.00
12666;BME280;58531;59.050;17.416;2024-03-08T03:07:59;101979.13;;;-6.01;100.00
12666;BME280;58531;59.050;17.416;2024-03-08T03:10:26;101970.84;;;-6.03;100.00
12666;BME280;58531;59.050;17.416;2024-03-08T03:12:54;101973.53;;;-6.08;100.00
12666;BME280;58531;59.050;17.416;2024-03-08T03:15:21;101974.88;;;-6.10;100.00
12666;BME280;58531;59.050;17.416;2024-03-08T03:17:49;101974.13;;;-6.11;100.00
12666;BME280;58531;59.050;17.416;2024-03-08T03:20:17;101971.53;;;-6.11;100.00
12666;BME280;58531;59.050;17.416;2024-03-08T03:22:51;101978.66;;;-6.16;100.00
12666;BME280;58531;59.050;17.416;2024-03-08T03:25:19;101967.00;;;-6.19;100.00
12666;BME280;58531;59.050;17.416;2024-03-08T03:27:52;101965.47;;;-6.20;100.00
12666;BME280;58531;59.050;17.416;2024-03-08T03:30:23;101964.41;;;-6.19;100.00
12666;BME280;58531;59.050;17.416;2024-03-08T03:32:53;101963.91;;;-6.21;100.00
12666;BME280;58531;59.050;17.416;2024-03-08T03:35:22;101966.03;;;-6.23;100.00
12666;BME280;58531;59.050;17.416;2024-03-08T03:37:49;101960.09;;;-6.23;100.00
12666;BME280;58531;59.050;17.416;2024-03-08T03:40:27;101970.16;;;-6.08;100.00
12666;BME280;58531;59.050;17.416;2024-03-08T03:42:54;101969.56;;;-5.92;100.00
12666;BME280;58531;59.050;17.416;2024-03-08T03:45:22;101971.19;;;-5.82;100.00
12666;BME280;58531;59.050;17.416;2024-03-08T03:47:49;101966.75;;;-5.60;100.00
12666;BME280;58531;59.050;17.416;2024-03-08T03:50:17;101959.22;;;-5.48;100.00
12666;BME280;58531;59.050;17.416;2024-03-08T03:52:44;101966.66;;;-5.33;100.00
12666;BME280;58531;59.050;17.416;2024-03-08T03:55:12;101966.72;;;-5.25;100.00
12666;BME280;58531;59.050;17.416;2024-03-08T03:57:39;101965.06;;;-5.21;100.00
12666;BME280;58531;59.050;17.416;2024-03-08T04:00:07;101965.13;;;-5.12;100.00
12666;BME280;58531;59.050;17.416;2024-03-08T04:02:37;101966.19;;;-5.13;100.00
12666;BME280;58531;59.050;17.416;2024-03-08T04:05:05;101961.53;;;-5.25;100.00
12666;BME280;58531;59.050;17.416;2024-03-08T04:07:33;101956.38;;;-5.38;100.00
12666;BME280;58531;59.050;17.416;2024-03-08T04:10:00;101963.34;;;-5.47;100.00
12666;BME280;58531;59.050;17.416;2024-03-08T04:12:27;101954.13;;;-5.53;100.00
12666;BME280;58531;59.050;17.416;2024-03-08T04:14:55;101963.38;;;-5.61;100.00
12666;BME280;58531;59.050;17.416;2024-03-08T04:17:22;101957.63;;;-5.71;100.00
12666;BME280;58531;59.050;17.416;2024-03-08T04:19:53;101963.56;;;-5.79;100.00
12666;BME280;58531;59.050;17.416;2024-03-08T04:22:20;101961.78;;;-5.92;100.00
12666;BME280;58531;59.050;17.416;2024-03-08T04:24:47;101963.91;;;-5.94;100.00
12666;BME280;58531;59.050;17.416;2024-03-08T04:27:14;101960.63;;;-5.99;100.00
12666;BME280;58531;59.050;17.416;2024-03-08T04:29:40;101961.50;;;-6.04;100.00
12666;BME280;58531;59.050;17.416;2024-03-08T04:32:07;101955.25;;;-6.03;100.00
12666;BME280;58531;59.050;17.416;2024-03-08T04:34:34;101954.28;;;-6.07;100.00
12666;BME280;58531;59.050;17.416;2024-03-08T04:37:02;101951.19;;;-6.09;100.00
12666;BME280;58531;59.050;17.416;2024-03-08T04:39:30;101955.25;;;-6.03;100.00
12666;BME280;58531;59.050;17.416;2024-03-08T04:42:00;101953.50;;;-5.94;100.00
12666;BME280;58531;59.050;17.416;2024-03-08T04:44:29;101948.53;;;-5.82;100.00
12666;BME280;58531;59.050;17.416;2024-03-08T04:46:57;101944.47;;;-5.75;100.00
12666;BME280;58531;59.050;17.416;2024-03-08T04:49:24;101946.28;;;-5.75;100.00
12666;BME280;58531;59.050;17.416;2024-03-08T04:51:50;101940.94;;;-5.78;100.00
12666;BME280;58531;59.050;17.416;2024-03-08T04:54:19;101943.28;;;-5.69;100.00
12666;BME280;58531;59.050;17.416;2024-03-08T04:56:46;101935.22;;;-5.59;100.00
12666;BME280;58531;59.050;17.416;2024-03-08T04:59:12;101939.25;;;-5.53;100.00
12666;BME280;58531;59.050;17.416;2024-03-08T05:01:39;101932.81;;;-5.55;100.00
12666;BME280;58531;59.050;17.416;2024-03-08T05:04:06;101937.34;;;-5.47;100.00
12666;BME280;58531;59.050;17.416;2024-03-08T05:06:33;101930.00;;;-5.45;100.00
12666;BME280;58531;59.050;17.416;2024-03-08T05:09:00;101929.22;;;-5.46;100.00
12666;BME280;58531;59.050;17.416;2024-03-08T05:11:40;101926.09;;;-5.56;100.00
12666;BME280;58531;59.050;17.416;2024-03-08T05:14:07;101933.34;;;-5.67;100.00
12666;BME280;58531;59.050;17.416;2024-03-08T05:16:34;101931.41;;;-5.61;100.00
12666;BME280;58531;59.050;17.416;2024-03-08T05:19:01;101929.28;;;-5.59;100.00
12666;BME280;58531;59.050;17.416;2024-03-08T05:21:28;101925.88;;;-5.60;100.00
12666;BME280;58531;59.050;17.416;2024-03-08T05:23:55;101927.25;;;-5.62;100.00
12666;BME280;58531;59.050;17.416;2024-03-08T05:26:22;101924.41;;;-5.74;100.00
12666;BME280;58531;59.050;17.416;2024-03-08T05:28:51;101924.06;;;-5.81;100.00
12666;BME280;58531;59.050;17.416;2024-03-08T05:31:19;101930.47;;;-5.87;100.00
12666;BME280;58531;59.050;17.416;2024-03-08T05:33:47;101925.59;;;-5.80;100.00
12666;BME280;58531;59.050;17.416;2024-03-08T05:36:14;101930.66;;;-5.75;100.00
12666;BME280;58531;59.050;17.416;2024-03-08T05:38:42;101929.16;;;-5.54;100.00
12666;BME280;58531;59.050;17.416;2024-03-08T05:41:09;101927.41;;;-5.45;100.00
12666;BME280;58531;59.050;17.416;2024-03-08T05:43:37;101930.75;;;-5.45;100.00
12666;BME280;58531;59.050;17.416;2024-03-08T05:46:05;101927.19;;;-5.49;100.00
12666;BME280;58531;59.050;17.416;2024-03-08T05:48:32;101931.75;;;-5.54;100.00
12666;BME280;58531;59.050;17.416;2024-03-08T05:51:00;101921.84;;;-5.52;100.00
12666;BME280;58531;59.050;17.416;2024-03-08T05:53:27;101927.63;;;-5.55;100.00
12666;BME280;58531;59.050;17.416;2024-03-08T05:55:57;101922.69;;;-5.57;100.00
12666;BME280;58531;59.050;17.416;2024-03-08T05:58:24;101927.50;;;-5.50;100.00
12666;BME280;58531;59.050;17.416;2024-03-08T06:00:54;101927.09;;;-5.44;100.00
12666;BME280;58531;59.050;17.416;2024-03-08T06:03:22;101932.44;;;-4.96;100.00
12666;BME280;58531;59.050;17.416;2024-03-08T06:05:49;101934.81;;;-4.31;100.00
12666;BME280;58531;59.050;17.416;2024-03-08T06:08:16;101929.19;;;-4.07;100.00
12666;BME280;58531;59.050;17.416;2024-03-08T06:10:44;101935.47;;;-4.17;100.00
12666;BME280;58531;59.050;17.416;2024-03-08T06:13:11;101937.25;;;-4.43;100.00
12666;BME280;58531;59.050;17.416;2024-03-08T06:15:38;101930.66;;;-4.49;100.00
12666;BME280;58531;59.050;17.416;2024-03-08T06:18:05;101939.38;;;-3.89;100.00
12666;BME280;58531;59.050;17.416;2024-03-08T06:20:37;101937.00;;;-3.14;100.00
12666;BME280;58531;59.050;17.416;2024-03-08T06:23:04;101931.13;;;-2.94;100.00
12666;BME280;58531;59.050;17.416;2024-03-08T06:25:31;101936.09;;;-2.72;100.00
12666;BME280;58531;59.050;17.416;2024-03-08T06:27:58;101936.72;;;-2.75;100.00
12666;BME280;58531;59.050;17.416;2024-03-08T06:30:25;101944.22;;;-2.65;100.00
12666;BME280;58531;59.050;17.416;2024-03-08T06:32:51;101937.34;;;-2.41;100.00
12666;BME280;58531;59.050;17.416;2024-03-08T06:35:18;101952.28;;;-2.13;100.00
12666;BME280;58531;59.050;17.416;2024-03-08T06:37:47;101954.63;;;-1.70;100.00
12666;BME280;58531;59.050;17.416;2024-03-08T06:40:14;101963.47;;;-1.42;100.00
12666;BME280;58531;59.050;17.416;2024-03-08T06:42:41;101971.41;;;-0.86;100.00
12666;BME280;58531;59.050;17.416;2024-03-08T06:45:08;101984.56;;;-0.03;100.00
12666;BME280;58531;59.050;17.416;2024-03-08T06:47:35;101988.28;;;0.08;100.00
12666;BME280;58531;59.050;17.416;2024-03-08T06:50:03;101979.00;;;-0.25;100.00
12666;BME280;58531;59.050;17.416;2024-03-08T06:52:31;101980.63;;;0.03;100.00
12666;BME280;58531;59.050;17.416;2024-03-08T06:55:00;101986.91;;;0.38;100.00
12666;BME280;58531;59.050;17.416;2024-03-08T06:57:27;101991.47;;;0.41;100.00
12666;BME280;58531;59.050;17.416;2024-03-08T06:59:55;101995.44;;;0.75;100.00
12666;BME280;58531;59.050;17.416;2024-03-08T07:02:22;101993.22;;;1.04;100.00
12666;BME280;58531;59.050;17.416;2024-03-08T07:04:50;102000.22;;;1.74;100.00
12666;BME280;58531;59.050;17.416;2024-03-08T07:07:18;102000.34;;;2.87;100.00
12666;BME280;58531;59.050;17.416;2024-03-08T07:09:46;102003.47;;;4.08;100.00
12666;BME280;58531;59.050;17.416;2024-03-08T07:12:16;102003.75;;;4.59;100.00
12666;BME280;58531;59.050;17.416;2024-03-08T07:14:43;102013.66;;;5.34;100.00
12666;BME280;58531;59.050;17.416;2024-03-08T07:17:11;102013.59;;;5.74;100.00
12666;BME280;58531;59.050;17.416;2024-03-08T07:19:38;102011.91;;;5.52;100.00
12666;BME280;58531;59.050;17.416;2024-03-08T07:22:05;102021.81;;;6.09;100.00
12666;BME280;58531;59.050;17.416;2024-03-08T07:24:34;102011.59;;;6.11;100.00
12666;BME280;58531;59.050;17.416;2024-03-08T07:27:17;102009.69;;;6.08;100.00
12666;BME280;58531;59.050;17.416;2024-03-08T07:29:44;102009.94;;;6.64;100.00
12666;BME280;58531;59.050;17.416;2024-03-08T07:32:11;102012.84;;;5.30;100.00
12666;BME280;58531;59.050;17.416;2024-03-08T07:34:47;102001.41;;;3.69;100.00
12666;BME280;58531;59.050;17.416;2024-03-08T07:37:14;102004.53;;;2.69;100.00
12666;BME280;58531;59.050;17.416;2024-03-08T07:39:41;101993.19;;;1.97;100.00
12666;BME280;58531;59.050;17.416;2024-03-08T07:42:09;101997.56;;;1.58;100.00
12666;BME280;58531;59.050;17.416;2024-03-08T07:44:38;102000.94;;;1.28;100.00
12666;BME280;58531;59.050;17.416;2024-03-08T07:47:05;102001.03;;;1.16;100.00
12666;BME280;58531;59.050;17.416;2024-03-08T07:49:34;102005.81;;;1.26;100.00
12666;BME280;58531;59.050;17.416;2024-03-08T07:52:02;102001.59;;;1.10;100.00
12666;BME280;58531;59.050;17.416;2024-03-08T07:54:33;101998.00;;;1.14;100.00
12666;BME280;58531;59.050;17.416;2024-03-08T07:57:00;101999.59;;;1.18;100.00
12666;BME280;58531;59.050;17.416;2024-03-08T07:59:28;102006.56;;;1.26;100.00
12666;BME280;58531;59.050;17.416;2024-03-08T08:01:57;102009.81;;;1.35;100.00
12666;BME280;58531;59.050;17.416;2024-03-08T08:04:25;102001.97;;;1.23;100.00
12666;BME280;58531;59.050;17.416;2024-03-08T08:06:52;102003.81;;;1.08;100.00
12666;BME280;58531;59.050;17.416;2024-03-08T08:09:20;102000.84;;;1.09;100.00
12666;BME280;58531;59.050;17.416;2024-03-08T08:11:54;102003.25;;;1.14;100.00
12666;BME280;58531;59.050;17.416;2024-03-08T08:14:21;102010.22;;;1.22;100.00
12666;BME280;58531;59.050;17.416;2024-03-08T08:16:48;101999.03;;;1.25;100.00
12666;BME280;58531;59.050;17.416;2024-03-08T08:19:19;102002.66;;;1.36;100.00
12666;BME280;58531;59.050;17.416;2024-03-08T08:21:46;102003.69;;;1.47;100.00
12666;BME280;58531;59.050;17.416;2024-03-08T08:24:13;102003.00;;;1.50;100.00
12666;BME280;58531;59.050;17.416;2024-03-08T08:26:40;101999.34;;;1.39;100.00
12666;BME280;58531;59.050;17.416;2024-03-08T08:29:07;101997.06;;;1.37;100.00
12666;BME280;58531;59.050;17.416;2024-03-08T08:31:33;101995.78;;;1.47;100.00
12666;BME280;58531;59.050;17.416;2024-03-08T08:34:00;101995.97;;;1.54;100.00
12666;BME280;58531;59.050;17.416;2024-03-08T08:36:30;101993.59;;;1.49;100.00
12666;BME280;58531;59.050;17.416;2024-03-08T08:38:57;101992.84;;;1.48;100.00
12666;BME280;58531;59.050;17.416;2024-03-08T08:41:25;101989.09;;;1.49;100.00
12666;BME280;58531;59.050;17.416;2024-03-08T08:43:52;101992.50;;;1.50;100.00
12666;BME280;58531;59.050;17.416;2024-03-08T08:46:20;101995.91;;;1.50;100.00
12666;BME280;58531;59.050;17.416;2024-03-08T08:48:47;101992.31;;;1.58;100.00
12666;BME280;58531;59.050;17.416;2024-03-08T08:51:14;101976.78;;;1.69;100.00
12666;BME280;58531;59.050;17.416;2024-03-08T08:53:42;101979.22;;;1.77;100.00
12666;BME280;58531;59.050;17.416;2024-03-08T08:56:10;101983.31;;;1.75;100.00
12666;BME280;58531;59.050;17.416;2024-03-08T08:58:38;101978.47;;;1.77;100.00
12666;BME280;58531;59.050;17.416;2024-03-08T09:01:05;101982.34;;;1.83;100.00
12666;BME280;58531;59.050;17.416;2024-03-08T09:03:33;101976.75;;;1.84;100.00
12666;BME280;58531;59.050;17.416;2024-03-08T09:06:02;101977.66;;;1.92;100.00
12666;BME280;58531;59.050;17.416;2024-03-08T09:08:30;101974.75;;;1.97;100.00
12666;BME280;58531;59.050;17.416;2024-03-08T09:10:59;101971.59;;;2.07;100.00
12666;BME280;58531;59.050;17.416;2024-03-08T09:13:29;101969.81;;;2.11;100.00
12666;BME280;58531;59.050;17.416;2024-03-08T09:15:56;101981.75;;;2.24;100.00
12666;BME280;58531;59.050;17.416;2024-03-08T09:18:23;101975.38;;;2.25;100.00
12666;BME280;58531;59.050;17.416;2024-03-08T09:20:50;101965.94;;;2.24;100.00
12666;BME280;58531;59.050;17.416;2024-03-08T09:23:19;101969.13;;;2.32;100.00
12666;BME280;58531;59.050;17.416;2024-03-08T09:25:46;101968.25;;;2.44;100.00
12666;BME280;58531;59.050;17.416;2024-03-08T09:28:14;101967.97;;;2.49;100.00
12666;BME280;58531;59.050;17.416;2024-03-08T09:30:41;101972.25;;;2.57;100.00
12666;BME280;58531;59.050;17.416;2024-03-08T09:33:08;101965.94;;;2.61;100.00
12666;BME280;58531;59.050;17.416;2024-03-08T09:35:35;101968.38;;;2.70;100.00
12666;BME280;58531;59.050;17.416;2024-03-08T09:38:02;101962.47;;;2.76;100.00
12666;BME280;58531;59.050;17.416;2024-03-08T09:40:30;101965.53;;;2.78;100.00
12666;BME280;58531;59.050;17.416;2024-03-08T09:42:57;101962.59;;;2.83;100.00
12666;BME280;58531;59.050;17.416;2024-03-08T09:45:26;101961.19;;;2.89;100.00
12666;BME280;58531;59.050;17.416;2024-03-08T09:47:54;101955.84;;;2.86;100.00
12666;BME280;58531;59.050;17.416;2024-03-08T09:50:21;101953.00;;;2.94;100.00
12666;BME280;58531;59.050;17.416;2024-03-08T09:52:49;101956.59;;;3.05;100.00
12666;BME280;58531;59.050;17.416;2024-03-08T09:55:16;101955.59;;;3.13;100.00
12666;BME280;58531;59.050;17.416;2024-03-08T09:57:50;101959.59;;;3.26;100.00
12666;BME280;58531;59.050;17.416;2024-03-08T10:00:33;101950.44;;;3.20;100.00
12666;BME280;58531;59.050;17.416;2024-03-08T10:03:01;101954.41;;;3.33;100.00
12666;BME280;58531;59.050;17.416;2024-03-08T10:05:28;101954.34;;;3.30;100.00
12666;BME280;58531;59.050;17.416;2024-03-08T10:07:58;101950.66;;;3.34;100.00
12666;BME280;58531;59.050;17.416;2024-03-08T10:10:25;101955.75;;;3.46;100.00
12666;BME280;58531;59.050;17.416;2024-03-08T10:12:52;101958.50;;;3.53;100.00
12666;BME280;58531;59.050;17.416;2024-03-08T10:15:22;101950.56;;;3.53;100.00
12666;BME280;58531;59.050;17.416;2024-03-08T10:17:51;101954.03;;;3.57;100.00
12666;BME280;58531;59.050;17.416;2024-03-08T10:20:19;101941.94;;;3.56;100.00
12666;BME280;58531;59.050;17.416;2024-03-08T10:22:46;101946.63;;;3.66;100.00
12666;BME280;58531;59.050;17.416;2024-03-08T10:25:13;101952.84;;;3.77;100.00
12666;BME280;58531;59.050;17.416;2024-03-08T10:27:41;101939.16;;;3.71;100.00
12666;BME280;58531;59.050;17.416;2024-03-08T10:30:10;101945.31;;;3.79;100.00
12666;BME280;58531;59.050;17.416;2024-03-08T10:32:38;101948.44;;;3.88;100.00
12666;BME280;58531;59.050;17.416;2024-03-08T10:35:08;101937.56;;;3.93;100.00
12666;BME280;58531;59.050;17.416;2024-03-08T10:37:44;101946.41;;;4.04;100.00
12666;BME280;58531;59.050;17.416;2024-03-08T10:40:16;101945.78;;;4.14;100.00
12666;BME280;58531;59.050;17.416;2024-03-08T10:42:51;101950.03;;;4.22;100.00
12666;BME280;58531;59.050;17.416;2024-03-08T10:45:26;101947.63;;;4.10;100.00
12666;BME280;58531;59.050;17.416;2024-03-08T10:48:10;101944.34;;;4.20;100.00
12666;BME280;58531;59.050;17.416;2024-03-08T10:50:43;101934.84;;;4.15;100.00
12666;BME280;58531;59.050;17.416;2024-03-08T10:53:13;101939.56;;;4.29;100.00
12666;BME280;58531;59.050;17.416;2024-03-08T10:55:40;101937.97;;;4.24;100.00
12666;BME280;58531;59.050;17.416;2024-03-08T10:58:08;101932.34;;;4.26;100.00
12666;BME280;58531;59.050;17.416;2024-03-08T11:00:36;101935.38;;;4.28;100.00
12666;BME280;58531;59.050;17.416;2024-03-08T11:03:03;101943.03;;;4.36;100.00
12666;BME280;58531;59.050;17.416;2024-03-08T11:05:37;101927.50;;;4.35;100.00
12666;BME280;58531;59.050;17.416;2024-03-08T11:08:16;101930.31;;;4.45;100.00
12666;BME280;58531;59.050;17.416;2024-03-08T11:10:48;101937.13;;;4.50;100.00
12666;BME280;58531;59.050;17.416;2024-03-08T11:13:35;101933.97;;;4.37;100.00
12666;BME280;58531;59.050;17.416;2024-03-08T11:16:03;101932.09;;;4.38;100.00
12666;BME280;58531;59.050;17.416;2024-03-08T11:18:35;101927.88;;;4.30;100.00
12666;BME280;58531;59.050;17.416;2024-03-08T11:21:03;101921.75;;;4.26;100.00
12666;BME280;58531;59.050;17.416;2024-03-08T11:23:34;101927.16;;;4.36;100.00
12666;BME280;58531;59.050;17.416;2024-03-08T11:26:01;101933.22;;;4.37;100.00
12666;BME280;58531;59.050;17.416;2024-03-08T11:28:33;101929.31;;;4.27;100.00
12666;BME280;58531;59.050;17.416;2024-03-08T11:31:22;101916.06;;;4.24;100.00
12666;BME280;58531;59.050;17.416;2024-03-08T11:33:50;101918.06;;;4.34;100.00
12666;BME280;58531;59.050;17.416;2024-03-08T11:36:20;101925.16;;;4.26;100.00
12666;BME280;58531;59.050;17.416;2024-03-08T11:38:50;101918.03;;;4.30;100.00
12666;BME280;58531;59.050;17.416;2024-03-08T11:41:18;101907.44;;;4.30;100.00
12666;BME280;58531;59.050;17.416;2024-03-08T11:43:46;101911.00;;;4.45;100.00
12666;BME280;58531;59.050;17.416;2024-03-08T11:46:14;101921.84;;;4.65;100.00
12666;BME280;58531;59.050;17.416;2024-03-08T11:48:42;101912.31;;;4.61;100.00
12666;BME280;58531;59.050;17.416;2024-03-08T11:51:11;101911.16;;;4.59;100.00
12666;BME280;58531;59.050;17.416;2024-03-08T11:53:39;101914.31;;;4.71;100.00
12666;BME280;58531;59.050;17.416;2024-03-08T11:56:09;101902.66;;;4.75;100.00
12666;BME280;58531;59.050;17.416;2024-03-08T11:58:37;101905.31;;;4.75;100.00
12666;BME280;58531;59.050;17.416;2024-03-08T12:01:04;101902.69;;;4.79;100.00
12666;BME280;58531;59.050;17.416;2024-03-08T12:03:32;101908.75;;;4.79;100.00
12666;BME280;58531;59.050;17.416;2024-03-08T12:05:59;101905.66;;;4.74;100.00
12666;BME280;58531;59.050;17.416;2024-03-08T12:08:26;101896.97;;;4.73;100.00
12666;BME280;58531;59.050;17.416;2024-03-08T12:10:55;101899.69;;;4.80;100.00
12666;BME280;58531;59.050;17.416;2024-03-08T12:13:26;101900.41;;;4.77;100.00
12666;BME280;58531;59.050;17.416;2024-03-08T12:15:56;101901.22;;;4.85;100.00
12666;BME280;58531;59.050;17.416;2024-03-08T12:18:24;101898.19;;;4.83;100.00
12666;BME280;58531;59.050;17.416;2024-03-08T12:20:51;101894.50;;;4.94;100.00
12666;BME280;58531;59.050;17.416;2024-03-08T12:23:19;101895.28;;;4.98;100.00
12666;BME280;58531;59.050;17.416;2024-03-08T12:25:46;101911.22;;;5.05;100.00
12666;BME280;58531;59.050;17.416;2024-03-08T12:28:13;101904.41;;;5.04;100.00
12666;BME280;58531;59.050;17.416;2024-03-08T12:30:47;101905.53;;;5.03;100.00
12666;BME280;58531;59.050;17.416;2024-03-08T12:33:15;101900.72;;;5.16;100.00
12666;BME280;58531;59.050;17.416;2024-03-08T12:35:50;101903.81;;;5.21;100.00
12666;BME280;58531;59.050;17.416;2024-03-08T12:38:20;101909.78;;;5.15;100.00
12666;BME280;58531;59.050;17.416;2024-03-08T12:40:50;101900.72;;;5.12;100.00